Latest Weather Observations for Cloncurry

IDQ60801

Issued at 3:42 pm EST Sunday 15 September 2019 (issued every 10 minutes, with the page automatically refreshed every 10 minutes)

About weather observations | Map of weather stations | Latest weather observations for QLD | Other Formats
Station Details ID: 029141 Name: CLONCURRY AIRPORT Lat: -20.67 Lon: 140.50 Height: 186.0 m
Data from the previous 72 hours. | See also: Recent months at Cloncurry
Date/Time
EST
Temp
°C
App
Temp
°C
Dew
Point
°C
Rel
Hum
%
Delta-T
°C
Wind Press
QNH
hPa
Press
MSL
hPa
Rain since
9am
mm
Dir  Spd
km/h
Gust
km/h
Spd
kts
Gust
kts
15/03:30pm 31.9 28.3 -2.2 11 16.0 SSW 7 15 4 8 1016.6 1015.7 0.0
15/03:00pm 31.0 26.2 -2.9 11 15.6 NE 13 20 7 11 1017.0 1016.1 0.0
15/02:30pm 30.6 25.1 -2.0 12 15.2 NNE 17 26 9 14 1017.5 1016.6 0.0
15/02:00pm 30.6 25.1 -2.0 12 15.2 NE 17 28 9 15 1017.9 1017.0 0.0
15/01:30pm 30.2 25.1 -2.3 12 15.1 NNE 15 24 8 13 1018.5 1017.6 0.0
15/01:00pm 29.9 24.1 -1.5 13 14.7 NE 19 26 10 14 1019.2 1018.3 0.0
15/12:30pm 29.8 25.1 -1.5 13 14.7 NE 13 17 7 9 1019.8 1018.9 0.0
15/12:00pm 28.9 23.8 -2.3 13 14.3 N 15 28 8 15 1020.4 1019.5 0.0
15/11:30am 27.9 22.4 -2.0 14 13.7 NNE 17 24 9 13 1020.9 1020.0 0.0
15/11:00am 27.2 22.0 -2.6 14 13.4 N 15 22 8 12 1021.1 1020.2 0.0
15/10:30am 26.4 20.9 -2.3 15 12.9 N 17 24 9 13 1021.5 1020.6 0.0
15/10:00am 26.4 20.4 -1.4 16 12.7 NNW 20 28 11 15 1021.6 1020.7 0.0
15/09:30am 24.8 19.4 -1.1 18 11.8 N 17 24 9 13 1021.8 1020.9 0.0
15/09:00am 24.1 19.1 -0.9 19 11.3 NNW 15 26 8 14 1021.8 1020.9 0.0
15/08:30am 22.9 17.3 -2.6 18 11.1 N 17 24 9 13 1021.5 1020.6 0.0
15/08:00am 21.3 17.5 -4.0 18 10.5 E 7 9 4 5 1021.2 1020.3 0.0
15/07:30am 19.5 15.5 -5.4 18 9.9 ESE 7 11 4 6 1020.8 1019.9 0.0
15/07:00am 18.6 14.5 -6.2 18 9.6 ESE 7 11 4 6 1020.2 1019.3 0.0
15/06:30am 18.1 13.7 -5.9 19 9.3 ESE 9 11 5 6 1019.7 1018.8 0.0
15/06:00am 17.3 12.8 -6.5 19 9.0 ESE 9 22 5 12 1019.2 1018.3 0.0
15/05:30am 17.1 12.0 -8.9 16 9.4 S 11 15 6 8 1018.7 1017.8 0.0
15/05:00am 15.2 9.4 -8.2 19 8.3 SSW 15 17 8 9 1018.2 1017.3 0.0
15/04:30am 15.6 10.1 -9.3 17 8.7 SSW 13 13 7 7 1018.0 1017.1 0.0
15/04:00am 16.2 10.8 -8.8 17 8.9 SSW 13 17 7 9 1017.8 1016.9 0.0
15/03:30am 16.3 10.5 -8.8 17 9.0 SSW 15 17 8 9 1017.6 1016.7 0.0
15/03:00am 16.5 10.8 -7.9 18 8.9 S 15 17 8 9 1017.5 1016.6 0.0
15/02:30am 16.8 11.0 -9.1 16 9.3 SSW 15 15 8 8 1017.6 1016.7 0.0
15/02:00am 16.7 11.7 -8.4 17 9.1 SSW 11 13 6 7 1018.0 1017.1 0.0
15/01:30am 16.8 11.4 -8.4 17 9.1 SSW 13 15 7 8 1018.1 1017.2 0.0
15/01:00am 17.5 11.7 -8.6 16 9.5 SSW 15 17 8 9 1018.4 1017.5 0.0
15/12:30am 17.8 12.4 -8.3 16 9.6 SSW 13 15 7 8 1018.4 1017.5 0.0
15/12:00am 18.2 12.5 -8.0 16 9.7 SSW 15 17 8 9 1018.6 1017.7 0.0
 
Date/Time
EST
Temp
°C
App
Temp
°C
Dew
Point
°C
Rel
Hum
%
Delta-T
°C
Wind Press
QNH
hPa
Press
MSL
hPa
Rain since
9am
mm
Dir  Spd
km/h
Gust
km/h
Spd
kts
Gust
kts
14/11:30pm 18.3 12.6 -7.9 16 9.8 SSW 15 17 8 9 1018.7 1017.8 0.0
14/11:00pm 18.8 13.4 -8.3 15 10.1 SSW 13 17 7 9 1018.7 1017.8 0.0
14/10:30pm 19.7 14.3 -8.5 14 10.6 S 13 15 7 8 1018.8 1017.9 0.0
14/10:00pm 18.9 13.9 -8.3 15 10.1 S 11 13 6 7 1018.7 1017.8 0.0
14/09:30pm 19.5 14.9 -7.8 15 10.3 SSE 9 11 5 6 1018.8 1017.9 0.0
14/09:00pm 19.9 15.6 -9.3 13 10.8 SE 7 9 4 5 1018.7 1017.8 0.0
14/08:30pm 21.2 16.9 -9.3 12 11.4 SE 7 9 4 5 1018.6 1017.7 0.0
14/08:00pm 22.5 18.7 -9.4 11 12.1 SE 4 6 2 3 1018.4 1017.5 0.0
14/07:30pm 26.1 21.8 -9.2 9 14.0 SE 7 9 4 5 1018.3 1017.4 0.0
14/07:00pm 28.0 23.4 -7.8 9 14.8 SE 9 11 5 6 1018.2 1017.3 0.0
14/06:30pm 29.9 23.6 -9.6 7 16.1 SE 17 22 9 12 1017.9 1017.0 0.0
14/06:00pm 31.0 24.8 -8.8 7 16.6 SE 17 22 9 12 1017.7 1016.8 0.0
14/05:30pm 31.8 25.3 -8.2 7 17.0 ESE 19 26 10 14 1017.6 1016.7 0.0
14/05:00pm 31.9 25.4 -8.1 7 17.0 ESE 19 32 10 17 1017.6 1016.7 0.0
14/04:30pm 32.3 24.9 -7.8 7 17.2 SE 24 35 13 19 1017.6 1016.7 0.0
14/04:00pm 32.0 24.5 -8.1 7 17.0 SSE 24 37 13 20 1017.6 1016.7 0.0
14/03:30pm 31.8 24.7 -8.2 7 17.0 SE 22 32 12 17 1017.9 1017.0 0.0
14/03:00pm 31.6 24.9 -8.3 7 16.8 SSE 20 33 11 18 1018.2 1017.3 0.0
14/02:30pm 32.0 24.9 -8.1 7 17.1 SE 22 37 12 20 1018.5 1017.6 0.0
14/02:00pm 31.7 26.5 -6.6 8 16.6 ESE 13 32 7 17 1018.9 1018.0 0.0
14/01:30pm 30.8 25.5 -7.2 8 16.3 SE 13 20 7 11 1019.6 1018.7 0.0
14/01:00pm 30.8 25.9 -7.2 8 16.2 ESE 11 26 6 14 1020.2 1019.3 0.0
14/12:30pm 30.7 23.7 -7.3 8 16.2 ESE 22 35 12 19 1021.0 1020.1 0.0
14/12:00pm 30.9 25.4 -5.6 9 16.0 ESE 15 28 8 15 1021.5 1020.6 0.0
14/11:30am 29.7 24.2 -5.1 10 15.3 ENE 15 26 8 14 1022.1 1021.2 0.0
14/11:00am 28.9 23.5 -4.5 11 14.7 ENE 15 26 8 14 1022.5 1021.6 0.0
14/10:30am 28.0 21.8 -5.2 11 14.4 E 19 26 10 14 1022.8 1021.9 0.0
14/10:00am 28.1 21.3 -5.1 11 14.3 ESE 22 32 12 17 1022.9 1022.0 0.0
14/09:30am 26.4 19.6 -5.3 12 13.5 ESE 22 30 12 16 1023.1 1022.2 0.0
14/09:00am 25.5 18.5 -7.1 11 13.3 ESE 22 28 12 15 1023.0 1022.1 0.0
14/08:30am 24.3 17.7 -6.9 12 12.6 ESE 20 28 11 15 1022.9 1022.0 0.0
14/08:00am 20.4 16.4 -5.4 17 10.3 SSW 7 13 4 7 1022.5 1021.6 0.0
14/07:30am 17.1 12.6 -3.6 24 8.3 SSW 11 13 6 7 1022.1 1021.2 0.0
14/07:00am 14.0 9.4 -3.7 29 6.9 SSW 11 13 6 7 1021.7 1020.8 0.0
14/06:30am 13.7 8.8 -3.5 30 6.7 SSW 13 15 7 8 1021.2 1020.3 0.0
14/06:00am 13.8 8.5 -3.5 30 6.7 SSW 15 15 8 8 1021.0 1020.1 0.0
14/05:30am 14.0 9.6 -2.8 31 6.7 SSW 11 13 6 7 1020.7 1019.8 0.0
14/05:00am 14.2 9.0 -3.1 30 6.8 SSW 15 15 8 8 1020.4 1019.5 0.0
14/04:30am 14.7 9.8 -3.1 29 7.1 SSW 13 15 7 8 1020.1 1019.2 0.0
14/04:00am 15.0 10.1 -3.3 28 7.2 SSW 13 15 7 8 1019.8 1018.9 0.0
14/03:30am 15.5 10.6 -3.4 27 7.5 SSW 13 15 7 8 1019.9 1019.0 0.0
14/03:00am 16.1 11.2 -3.4 26 7.8 SSW 13 13 7 7 1020.1 1019.2 0.0
14/02:30am 16.2 11.3 -3.3 26 7.8 SSW 13 15 7 8 1020.0 1019.1 0.0
14/02:00am 16.6 11.3 -3.5 25 8.1 SSW 15 17 8 9 1020.1 1019.2 0.0
14/01:30am 16.8 11.5 -3.3 25 8.1 SSW 15 15 8 8 1020.3 1019.4 0.0
14/01:00am 17.3 12.3 -4.0 23 8.5 SSW 13 15 7 8 1020.4 1019.5 0.0
14/12:30am 17.6 12.7 -3.7 23 8.6 SSW 13 13 7 7 1020.7 1019.8 0.0
14/12:00am 18.0 12.7 -4.0 22 8.8 SSW 15 15 8 8 1020.9 1020.0 0.0
 
Date/Time
EST
Temp
°C
App
Temp
°C
Dew
Point
°C
Rel
Hum
%
Delta-T
°C
Wind Press
QNH
hPa
Press
MSL
hPa
Rain since
9am
mm
Dir  Spd
km/h
Gust
km/h
Spd
kts
Gust
kts
13/11:30pm 18.2 13.3 -3.8 22 8.9 S 13 15 7 8 1020.7 1019.8 0.0
13/11:00pm 18.6 14.0 -4.1 21 9.2 S 11 13 6 7 1020.9 1020.0 0.0
13/10:30pm 20.1 15.6 -3.5 20 9.8 S 11 17 6 9 1021.0 1020.1 0.0
13/10:00pm 18.6 14.5 -2.9 23 8.9 SE 9 11 5 6 1020.9 1020.0 0.0
13/09:30pm 19.6 15.9 -2.7 22 9.4 SE 7 9 4 5 1020.9 1020.0 0.0
13/09:00pm 20.9 17.0 -4.3 18 10.4 SE 7 9 4 5 1020.7 1019.8 0.0
13/08:30pm 22.1 17.6 -6.6 14 11.5 SE 9 11 5 6 1020.5 1019.6 0.0
13/08:00pm 23.9 19.6 -5.2 14 12.1 SE 9 13 5 7 1020.4 1019.5 0.0
13/07:30pm 26.4 21.8 -4.2 13 13.3 SE 11 15 6 8 1020.2 1019.3 0.0
13/07:00pm 27.4 22.4 -4.5 12 13.9 SE 13 17 7 9 1019.9 1019.0 0.0
13/06:30pm 28.7 23.0 -3.5 12 14.4 SE 17 20 9 11 1019.8 1018.9 0.0
13/06:00pm 29.6 22.2 -3.9 11 15.0 SE 26 33 14 18 1019.6 1018.7 0.0
13/05:30pm 30.3 24.1 -3.4 11 15.3 SE 20 30 11 16 1019.5 1018.6 0.0
13/05:00pm 30.2 22.4 -3.5 11 15.3 ESE 28 39 15 21 1019.4 1018.5 0.0
13/04:30pm 30.4 24.2 -3.3 11 15.4 SE 20 30 11 16 1019.4 1018.5 0.0
13/04:00pm 30.3 23.7 -3.4 11 15.3 SE 22 39 12 21 1019.5 1018.6 0.0
13/03:30pm 30.1 23.6 -2.4 12 15.0 SE 22 35 12 19 1019.6 1018.7 0.0
13/03:00pm 30.4 23.6 -2.2 12 15.1 ESE 24 37 13 20 1020.0 1019.1 0.0
13/02:30pm 29.4 23.0 -1.9 13 14.5 SSE 22 32 12 17 1020.3 1019.4 0.0
13/02:00pm 29.4 21.5 -1.9 13 14.5 ESE 30 39 16 21 1020.7 1019.8 0.0
13/01:30pm 29.0 23.6 -1.2 14 14.1 ESE 17 30 9 16 1021.1 1020.2 0.0
13/01:00pm 28.3 21.9 -1.7 14 13.8 ESE 22 33 12 18 1021.7 1020.8 0.0
13/12:30pm 28.5 22.3 -0.6 15 13.7 ESE 22 33 12 18 1022.1 1021.2 0.0
13/12:00pm 28.5 22.0 0.3 16 13.5 ESE 24 39 13 21 1022.8 1021.9 0.0
13/11:30am 27.0 20.8 -0.1 17 12.7 ESE 22 37 12 20 1023.4 1022.5 0.0
13/11:00am 27.4 20.9 0.2 17 12.8 ESE 24 35 13 19 1024.0 1023.2 0.0
13/10:30am 26.3 21.2 0.9 19 12.1 ENE 17 26 9 14 1024.3 1023.5 0.0
13/10:00am 24.8 19.3 0.3 20 11.4 E 19 28 10 15 1024.6 1023.8 0.0
13/09:30am 24.1 19.1 1.1 22 10.8 E 17 26 9 14 1024.5 1023.7 0.0
13/09:00am 22.1 16.4 0.6 24 9.8 E 20 28 11 15 1024.5 1023.7 0.0
13/08:30am 21.1 15.6 0.3 25 9.4 E 19 24 10 13 1024.2 1023.4 0.0
13/08:00am 19.5 15.5 0.5 28 8.5 SE 11 15 6 8 1023.8 1023.0 0.0
13/07:55am 18.8 15.8 0.9 30 8.0 S 6 15 3 8 1023.7 1022.8 0.0
13/07:30am 13.8 11.7 -1.0 36 6.1 CALM 0 0 0 0 1023.4 1022.5 0.0
13/07:00am 11.6 8.0 -1.9 39 5.3 S 7 9 4 5 1022.9 1022.0 0.0
13/06:30am 12.2 8.3 -1.7 38 5.6 S 9 11 5 6 1022.3 1021.4 0.0
13/06:00am 12.1 7.6 -3.3 34 5.9 S 11 13 6 7 1021.9 1021.0 0.0
13/05:30am 12.6 8.6 -2.1 36 5.8 S 9 13 5 7 1021.7 1020.8 0.0
13/05:00am 13.5 9.2 -2.0 34 6.2 S 11 13 6 7 1021.4 1020.5 0.0
13/04:30am 14.3 10.4 -1.7 33 6.5 S 9 9 5 5 1021.0 1020.1 0.0
13/04:00am 14.0 10.1 -1.6 34 6.3 S 9 11 5 6 1020.8 1019.9 0.0
13/03:30am 15.0 11.2 -1.1 33 6.7 S 9 11 5 6 1020.9 1020.0 0.0
13/03:00am 14.9 11.0 -1.2 33 6.7 S 9 13 5 7 1020.9 1020.0 0.0
13/02:30am 14.8 11.3 -1.7 32 6.8 S 7 9 4 5 1021.0 1020.1 0.0
13/02:00am 15.6 12.3 -1.0 32 6.9 S 6 9 3 5 1021.1 1020.2 0.0
13/01:30am 16.5 12.7 -1.1 30 7.4 S 9 13 5 7 1021.2 1020.3 0.0
13/01:00am 16.6 11.9 -1.5 29 7.6 S 13 17 7 9 1021.4 1020.5 0.0
13/12:30am 16.6 11.9 -2.0 28 7.7 S 13 15 7 8 1021.6 1020.7 0.0
13/12:00am 17.4 12.3 -1.8 27 8.0 S 15 17 8 9 1021.8 1020.9 0.0
 
Date/Time
EST
Temp
°C
App
Temp
°C
Dew
Point
°C
Rel
Hum
%
Delta-T
°C
Wind Press
QNH
hPa
Press
MSL
hPa
Rain since
9am
mm
Dir  Spd
km/h
Gust
km/h
Spd
kts
Gust
kts
12/11:30pm 17.2 13.6 -2.4 26 8.1 SE 7 11 4 6 1021.8 1020.9 0.0
12/11:00pm 20.5 16.2 -1.9 22 9.6 SE 11 13 6 7 1021.8 1020.9 0.0
12/10:30pm 21.1 16.6 -0.2 24 9.5 SE 13 15 7 8 1021.8 1020.9 0.0
12/10:00pm 20.8 15.9 -3.0 20 10.0 SE 13 15 7 8 1021.9 1021.0 0.0
12/09:30pm 20.7 16.2 -3.0 20 10.0 SE 11 13 6 7 1022.0 1021.1 0.0
12/09:00pm 22.4 18.3 -3.1 18 10.9 SE 9 11 5 6 1021.8 1020.9 0.0
12/08:30pm 22.9 18.2 -5.1 15 11.6 SE 11 13 6 7 1021.6 1020.7 0.0
12/08:00pm 23.6 18.5 -5.4 14 12.0 SE 13 15 7 8 1021.3 1020.4 0.0
12/07:30pm 25.0 20.0 -4.3 14 12.6 SE 13 15 7 8 1021.0 1020.1 0.0
12/07:00pm 25.9 20.9 -4.6 13 13.1 SE 13 19 7 10 1020.9 1020.0 0.0
12/06:30pm 27.0 21.3 -3.7 13 13.5 SE 17 20 9 11 1020.7 1019.8 0.0
12/06:00pm 27.9 21.6 -4.1 12 14.1 SE 20 28 11 15 1020.4 1019.5 0.0
12/05:30pm 28.4 21.0 -3.7 12 14.3 ESE 26 32 14 17 1020.2 1019.3 0.0
12/05:00pm 28.7 23.2 -2.4 13 14.2 SSE 17 30 9 16 1020.2 1019.3 0.0
12/04:30pm 28.6 22.3 -3.6 12 14.4 SE 20 28 11 15 1020.1 1019.2 0.0
12/04:00pm 29.0 24.2 -2.2 13 14.3 E 13 26 7 14 1020.2 1019.3 0.0

Other formats

Comma delimited format used in spreadsheet applications
http://www.bom.gov.au/fwo/IDQ60801/IDQ60801.94335.axf

JavaScript Object Notation format (JSON) in row-major order
http://www.bom.gov.au/fwo/IDQ60801/IDQ60801.94335.json

Data quality

Most of these data are generated automatically and are frequently updated. Quality checks on data are not normally performed. It is possible for incorrect values to appear. Refer to information at About Latest Weather Observations and please check the disclaimer before using these data.